Terminal Aerodrome Forecast
Issued by NWS

Home | Current Version | Previous Version | Text Only | Print | Product List | Glossary Off
Versions: 1 2 3 4 5 6 7 8 9 10 11 12 13 14 15 16 17 18

413
FTUS43 KABR 240539
TAFATY
TAF
KATY 240539Z 2406/2506 09006KT P6SM OVC080
     FM241200 03012G23KT P6SM OVC080
     FM241800 03015G23KT P6SM OVC050
     FM242200 02013KT P6SM SCT080
     FM250200 01008KT P6SM FEW150=

USA.gov is the U.S. government's official web portal to all federal, state and local government web resources and services.